DKH1095 ZSWX-ZPJH
Flight info
| Callsign | DKH1095 |
|---|---|
| Flight time | 3h 7m |
| Altitude | 32100 |
| Route | PIMUS V11 DOGVI W545 VEMEX W73 MADUK W51 LEGIV W164 VILID V65 IKUBA W50 XSH W80 IDGAG A581 BIDRU |
| Aircraft | A320/M-SDE3FGHIRWY/LB1 |
Departure
| Time | 2026-05-06 09:47 |
|---|---|
| Airport | Sunan Shuofang International Airport (ZSWX) |
Arrival
| Time | 2026-05-06 12:54 |
|---|---|
| Airport | Xishuangbanna Gasa International Airport (ZPJH) |
| Time | Latitude | Longitude | Altitude | Speed | Heading |
|---|---|---|---|---|---|
| 2026-05-06 09:35 | 31.50654 | 120.43019 | 26 ft | 0 kts | 290° |
| 2026-05-06 09:39 | 31.50648 | 120.43038 | 30 ft | 4 kts | 292° |
| 2026-05-06 09:39 | 31.50637 | 120.43067 | 28 ft | 4 kts | 302° |
| 2026-05-06 09:40 | 31.50620 | 120.43090 | 30 ft | 4 kts | 335° |
| 2026-05-06 09:40 | 31.50606 | 120.43094 | 27 ft | 0 kts | 20° |
| 2026-05-06 09:42 | 31.50607 | 120.43094 | 27 ft | 1 kts | 20° |
| 2026-05-06 09:42 | 31.50627 | 120.43103 | 30 ft | 5 kts | 20° |
| 2026-05-06 09:42 | 31.50674 | 120.43123 | 28 ft | 9 kts | 20° |
| 2026-05-06 09:42 | 31.50746 | 120.43159 | 27 ft | 12 kts | 41° |
| 2026-05-06 09:43 | 31.50755 | 120.43243 | 28 ft | 10 kts | 60° |
| 2026-05-06 09:43 | 31.50827 | 120.43277 | 28 ft | 12 kts | 19° |
| 2026-05-06 09:43 | 31.50909 | 120.43312 | 27 ft | 13 kts | 20° |
| 2026-05-06 09:43 | 31.51005 | 120.43355 | 27 ft | 17 kts | 20° |
| 2026-05-06 09:44 | 31.51118 | 120.43406 | 27 ft | 12 kts | 34° |
| 2026-05-06 09:44 | 31.51118 | 120.43491 | 25 ft | 11 kts | 111° |
| 2026-05-06 09:44 | 31.51087 | 120.43586 | 24 ft | 14 kts | 111° |
| 2026-05-06 09:44 | 31.51021 | 120.43613 | 24 ft | 10 kts | 201° |
| 2026-05-06 09:45 | 31.51009 | 120.43608 | 25 ft | 0 kts | 201° |
| 2026-05-06 09:46 | 31.50904 | 120.43562 | 24 ft | 49 kts | 200° |
| 2026-05-06 09:46 | 31.50364 | 120.43330 | 28 ft | 113 kts | 200° |
| 2026-05-06 09:46 | 31.49456 | 120.42941 | 30 ft | 162 kts | 198° |
| 2026-05-06 09:46 | 31.48381 | 120.42489 | 560 ft | 166 kts | 197° |
| 2026-05-06 09:47 | 31.47275 | 120.42013 | 1199 ft | 169 kts | 198° |
| 2026-05-06 09:47 | 31.46169 | 120.41535 | 1831 ft | 171 kts | 198° |
| 2026-05-06 09:47 | 31.44982 | 120.41026 | 2142 ft | 193 kts | 198° |
| 2026-05-06 09:47 | 31.43652 | 120.40458 | 2487 ft | 210 kts | 198° |
| 2026-05-06 09:48 | 31.42275 | 120.39867 | 3201 ft | 211 kts | 199° |
| 2026-05-06 09:48 | 31.40908 | 120.39222 | 3881 ft | 213 kts | 210° |
| 2026-05-06 09:48 | 31.39964 | 120.37900 | 4552 ft | 220 kts | 252° |
| 2026-05-06 09:48 | 31.40003 | 120.36120 | 5190 ft | 227 kts | 292° |
| 2026-05-06 09:49 | 31.41034 | 120.34747 | 5882 ft | 231 kts | 332° |
| 2026-05-06 09:49 | 31.42549 | 120.34123 | 6597 ft | 231 kts | 341° |
| 2026-05-06 09:49 | 31.44104 | 120.33619 | 7250 ft | 233 kts | 342° |
| 2026-05-06 09:49 | 31.45679 | 120.33126 | 7872 ft | 235 kts | 342° |
| 2026-05-06 09:50 | 31.47268 | 120.32625 | 8486 ft | 238 kts | 342° |
| 2026-05-06 09:50 | 31.48874 | 120.32114 | 9106 ft | 240 kts | 342° |
| 2026-05-06 09:50 | 31.50495 | 120.31592 | 9739 ft | 243 kts | 342° |
| 2026-05-06 09:50 | 31.52171 | 120.31261 | 10270 ft | 249 kts | 357° |
| 2026-05-06 09:51 | 31.53987 | 120.31389 | 10452 ft | 273 kts | 2° |
| 2026-05-06 09:51 | 31.55966 | 120.31597 | 10618 ft | 297 kts | 3° |
| 2026-05-06 09:51 | 31.57366 | 120.31695 | 10722 ft | 311 kts | 355° |
| 2026-05-06 09:51 | 31.59565 | 120.31180 | 10861 ft | 329 kts | 335° |
| 2026-05-06 09:52 | 31.61556 | 120.29806 | 10982 ft | 347 kts | 323° |
| 2026-05-06 09:52 | 31.63615 | 120.28094 | 11109 ft | 368 kts | 322° |
| 2026-05-06 09:52 | 31.65742 | 120.26314 | 11226 ft | 386 kts | 323° |
| 2026-05-06 09:52 | 31.67936 | 120.24481 | 11521 ft | 396 kts | 323° |
| 2026-05-06 09:53 | 31.70196 | 120.22521 | 12008 ft | 400 kts | 317° |
| 2026-05-06 09:53 | 31.72096 | 120.20190 | 12521 ft | 401 kts | 306° |
| 2026-05-06 09:53 | 31.73571 | 120.17407 | 13048 ft | 403 kts | 294° |
| 2026-05-06 09:53 | 31.74526 | 120.14315 | 13570 ft | 404 kts | 282° |
| 2026-05-06 09:54 | 31.74936 | 120.11040 | 14037 ft | 406 kts | 274° |
| 2026-05-06 09:54 | 31.75166 | 120.07723 | 14527 ft | 408 kts | 274° |
| 2026-05-06 09:54 | 31.75398 | 120.04394 | 15013 ft | 410 kts | 274° |
| 2026-05-06 09:54 | 31.75633 | 120.01051 | 15494 ft | 411 kts | 274° |
| 2026-05-06 09:55 | 31.75877 | 119.97695 | 15967 ft | 413 kts | 274° |
| 2026-05-06 09:55 | 31.76141 | 119.94335 | 16409 ft | 414 kts | 274° |
| 2026-05-06 09:55 | 31.76418 | 119.90958 | 16844 ft | 416 kts | 274° |
| 2026-05-06 09:55 | 31.76700 | 119.87567 | 17271 ft | 417 kts | 274° |
| 2026-05-06 09:56 | 31.76981 | 119.84169 | 17685 ft | 419 kts | 274° |
| 2026-05-06 09:56 | 31.77263 | 119.80758 | 18090 ft | 420 kts | 274° |
| 2026-05-06 09:56 | 31.77542 | 119.77336 | 18431 ft | 421 kts | 274° |
| 2026-05-06 09:56 | 31.77823 | 119.73858 | 18762 ft | 423 kts | 274° |
| 2026-05-06 09:57 | 31.78094 | 119.70413 | 19088 ft | 424 kts | 274° |
| 2026-05-06 09:57 | 31.78362 | 119.66961 | 19407 ft | 425 kts | 274° |
| 2026-05-06 09:57 | 31.78626 | 119.63541 | 19698 ft | 427 kts | 274° |
| 2026-05-06 09:57 | 31.78896 | 119.60059 | 20003 ft | 428 kts | 274° |
| 2026-05-06 09:58 | 31.79168 | 119.56563 | 20292 ft | 430 kts | 274° |
| 2026-05-06 09:58 | 31.79437 | 119.53061 | 20577 ft | 431 kts | 274° |
| 2026-05-06 09:58 | 31.79707 | 119.49540 | 20855 ft | 433 kts | 274° |
| 2026-05-06 09:58 | 31.79975 | 119.46010 | 21118 ft | 434 kts | 274° |
| 2026-05-06 09:59 | 31.80244 | 119.42472 | 21376 ft | 436 kts | 274° |
| 2026-05-06 09:59 | 31.80512 | 119.38924 | 21631 ft | 437 kts | 273° |
| 2026-05-06 09:59 | 31.80731 | 119.35352 | 21891 ft | 438 kts | 272° |
| 2026-05-06 09:59 | 31.80884 | 119.31777 | 22131 ft | 439 kts | 271° |
| 2026-05-06 10:00 | 31.80999 | 119.28185 | 22377 ft | 440 kts | 271° |
| 2026-05-06 10:00 | 31.81097 | 119.24585 | 22620 ft | 441 kts | 270° |
| 2026-05-06 10:00 | 31.81196 | 119.20969 | 22857 ft | 442 kts | 271° |
| 2026-05-06 10:00 | 31.81305 | 119.17351 | 23076 ft | 444 kts | 271° |
| 2026-05-06 10:01 | 31.81425 | 119.13712 | 23290 ft | 445 kts | 271° |
| 2026-05-06 10:01 | 31.81556 | 119.10073 | 23488 ft | 446 kts | 271° |
| 2026-05-06 10:01 | 31.81693 | 119.06427 | 23658 ft | 447 kts | 271° |
| 2026-05-06 10:01 | 31.81827 | 119.02768 | 23827 ft | 448 kts | 271° |
| 2026-05-06 10:02 | 31.81958 | 118.99112 | 23996 ft | 449 kts | 271° |
| 2026-05-06 10:02 | 31.82305 | 118.95449 | 24151 ft | 451 kts | 279° |
| 2026-05-06 10:02 | 31.83071 | 118.91859 | 24309 ft | 453 kts | 283° |
| 2026-05-06 10:02 | 31.83852 | 118.88282 | 24533 ft | 451 kts | 279° |
| 2026-05-06 10:03 | 31.84234 | 118.84639 | 24759 ft | 448 kts | 271° |
| 2026-05-06 10:03 | 31.84104 | 118.80984 | 24974 ft | 447 kts | 263° |
| 2026-05-06 10:03 | 31.83769 | 118.77356 | 25207 ft | 446 kts | 263° |
| 2026-05-06 10:03 | 31.83443 | 118.73722 | 25450 ft | 445 kts | 264° |
| 2026-05-06 10:04 | 31.83125 | 118.70104 | 25695 ft | 445 kts | 264° |
| 2026-05-06 10:04 | 31.82807 | 118.66488 | 25958 ft | 444 kts | 264° |
| 2026-05-06 10:04 | 31.82487 | 118.62878 | 26208 ft | 444 kts | 264° |
| 2026-05-06 10:04 | 31.82164 | 118.59272 | 26464 ft | 443 kts | 264° |
| 2026-05-06 10:05 | 31.81838 | 118.55669 | 26727 ft | 442 kts | 264° |
| 2026-05-06 10:05 | 31.81512 | 118.52077 | 27004 ft | 442 kts | 264° |
| 2026-05-06 10:05 | 31.81186 | 118.48489 | 27265 ft | 441 kts | 264° |
| 2026-05-06 10:05 | 31.80861 | 118.44899 | 27536 ft | 441 kts | 264° |
| 2026-05-06 10:06 | 31.80533 | 118.41320 | 27824 ft | 440 kts | 264° |
| 2026-05-06 10:06 | 31.80203 | 118.37741 | 28132 ft | 439 kts | 264° |
| 2026-05-06 10:06 | 31.79872 | 118.34177 | 28427 ft | 439 kts | 264° |
| 2026-05-06 10:06 | 31.79368 | 118.30640 | 28710 ft | 439 kts | 257° |
| 2026-05-06 10:07 | 31.78379 | 118.27242 | 28985 ft | 441 kts | 248° |
| 2026-05-06 10:07 | 31.77092 | 118.23968 | 29282 ft | 441 kts | 248° |
| 2026-05-06 10:07 | 31.75806 | 118.20692 | 29574 ft | 441 kts | 248° |
| 2026-05-06 10:07 | 31.74527 | 118.17422 | 29881 ft | 440 kts | 248° |
| 2026-05-06 10:08 | 31.73248 | 118.14151 | 30141 ft | 440 kts | 248° |
| 2026-05-06 10:08 | 31.72025 | 118.10866 | 30398 ft | 438 kts | 252° |
| 2026-05-06 10:08 | 31.71200 | 118.07492 | 30642 ft | 435 kts | 258° |
| 2026-05-06 10:08 | 31.70495 | 118.03988 | 30892 ft | 435 kts | 258° |
| 2026-05-06 10:09 | 31.69788 | 118.00540 | 31147 ft | 434 kts | 258° |
| 2026-05-06 10:09 | 31.69075 | 117.97102 | 31406 ft | 434 kts | 258° |
| 2026-05-06 10:09 | 31.68370 | 117.93710 | 31656 ft | 433 kts | 258° |
| 2026-05-06 10:09 | 31.67655 | 117.90273 | 31881 ft | 433 kts | 258° |
| 2026-05-06 10:10 | 31.66218 | 117.83359 | 31963 ft | 439 kts | 258° |
| 2026-05-06 10:10 | 31.64773 | 117.76369 | 31961 ft | 441 kts | 258° |
| 2026-05-06 10:11 | 31.63315 | 117.69366 | 31964 ft | 442 kts | 258° |
| 2026-05-06 10:11 | 31.61850 | 117.62356 | 31964 ft | 443 kts | 258° |
| 2026-05-06 10:12 | 31.60396 | 117.55332 | 31966 ft | 443 kts | 258° |
| 2026-05-06 10:12 | 31.59117 | 117.48270 | 31951 ft | 443 kts | 260° |
| 2026-05-06 10:13 | 31.57916 | 117.41179 | 31959 ft | 443 kts | 260° |
| 2026-05-06 10:13 | 31.56682 | 117.34094 | 31952 ft | 444 kts | 259° |
| 2026-05-06 10:14 | 31.54823 | 117.27191 | 31958 ft | 448 kts | 245° |
| 2026-05-06 10:14 | 31.51698 | 117.20847 | 31952 ft | 450 kts | 242° |
| 2026-05-06 10:15 | 31.48541 | 117.14499 | 31957 ft | 450 kts | 242° |
| 2026-05-06 10:15 | 31.45389 | 117.08157 | 31951 ft | 451 kts | 242° |
| 2026-05-06 10:16 | 31.42230 | 117.01817 | 31961 ft | 451 kts | 242° |
| 2026-05-06 10:16 | 31.39051 | 116.95466 | 31962 ft | 452 kts | 242° |
| 2026-05-06 10:17 | 31.35868 | 116.89121 | 31972 ft | 452 kts | 242° |
| 2026-05-06 10:17 | 31.32679 | 116.82776 | 31971 ft | 452 kts | 242° |
| 2026-05-06 10:18 | 31.29490 | 116.76443 | 31981 ft | 452 kts | 242° |
| 2026-05-06 10:18 | 31.26305 | 116.70114 | 31978 ft | 452 kts | 242° |
| 2026-05-06 10:19 | 31.23119 | 116.63796 | 31984 ft | 451 kts | 242° |
| 2026-05-06 10:19 | 31.19937 | 116.57482 | 31980 ft | 451 kts | 242° |
| 2026-05-06 10:20 | 31.16752 | 116.51182 | 31988 ft | 450 kts | 242° |
| 2026-05-06 10:20 | 31.13558 | 116.44893 | 31977 ft | 449 kts | 242° |
| 2026-05-06 10:21 | 31.10368 | 116.38616 | 31990 ft | 449 kts | 242° |
| 2026-05-06 10:21 | 31.07180 | 116.32346 | 31994 ft | 450 kts | 242° |
| 2026-05-06 10:22 | 31.03992 | 116.26076 | 31993 ft | 449 kts | 242° |
| 2026-05-06 10:22 | 31.00801 | 116.19818 | 31985 ft | 449 kts | 242° |
| 2026-05-06 10:23 | 30.97601 | 116.13561 | 31987 ft | 449 kts | 242° |
| 2026-05-06 10:23 | 30.94399 | 116.07316 | 31976 ft | 449 kts | 242° |
| 2026-05-06 10:24 | 30.91197 | 116.01073 | 31980 ft | 449 kts | 242° |
| 2026-05-06 10:24 | 30.87996 | 115.94828 | 31971 ft | 449 kts | 242° |
| 2026-05-06 10:25 | 30.84642 | 115.88687 | 31971 ft | 452 kts | 235° |
| 2026-05-06 10:25 | 30.80797 | 115.82887 | 31964 ft | 452 kts | 235° |
| 2026-05-06 10:26 | 30.76957 | 115.77077 | 31966 ft | 453 kts | 235° |
| 2026-05-06 10:26 | 30.73150 | 115.71305 | 31957 ft | 453 kts | 235° |
| 2026-05-06 10:27 | 30.69314 | 115.65495 | 31960 ft | 453 kts | 235° |
| 2026-05-06 10:27 | 30.65451 | 115.59657 | 31954 ft | 453 kts | 235° |
| 2026-05-06 10:28 | 30.61631 | 115.53897 | 31955 ft | 453 kts | 235° |
| 2026-05-06 10:28 | 30.57786 | 115.48109 | 31942 ft | 453 kts | 235° |
| 2026-05-06 10:29 | 30.53941 | 115.42325 | 31942 ft | 452 kts | 235° |
| 2026-05-06 10:29 | 30.50095 | 115.36557 | 31929 ft | 452 kts | 236° |
| 2026-05-06 10:30 | 30.46435 | 115.30666 | 31919 ft | 447 kts | 245° |
| 2026-05-06 10:30 | 30.44451 | 115.23937 | 31902 ft | 440 kts | 264° |
| 2026-05-06 10:31 | 30.44534 | 115.16914 | 31905 ft | 436 kts | 278° |
| 2026-05-06 10:31 | 30.45147 | 115.11110 | 31899 ft | 437 kts | 278° |
| 2026-05-06 10:32 | 30.45863 | 115.04114 | 31906 ft | 437 kts | 278° |
| 2026-05-06 10:32 | 30.46220 | 115.00602 | 31666 ft | 437 kts | 276° |
| 2026-05-06 10:32 | 30.46576 | 114.97117 | 31847 ft | 435 kts | 275° |
| 2026-05-06 10:33 | 30.47284 | 114.90144 | 31916 ft | 436 kts | 275° |
| 2026-05-06 10:33 | 30.47996 | 114.83177 | 31919 ft | 435 kts | 275° |
| 2026-05-06 10:34 | 30.48702 | 114.76219 | 31919 ft | 434 kts | 275° |
| 2026-05-06 10:34 | 30.49408 | 114.69266 | 31905 ft | 434 kts | 275° |
| 2026-05-06 10:35 | 30.50102 | 114.62326 | 31897 ft | 433 kts | 275° |
| 2026-05-06 10:35 | 30.50790 | 114.55376 | 31892 ft | 434 kts | 275° |
| 2026-05-06 10:36 | 30.51478 | 114.48427 | 31887 ft | 434 kts | 275° |
| 2026-05-06 10:36 | 30.52173 | 114.41463 | 31881 ft | 434 kts | 275° |
| 2026-05-06 10:37 | 30.52858 | 114.34499 | 31879 ft | 435 kts | 275° |
| 2026-05-06 10:37 | 30.53537 | 114.27526 | 31874 ft | 435 kts | 275° |
| 2026-05-06 10:38 | 30.54206 | 114.20602 | 31878 ft | 435 kts | 275° |
| 2026-05-06 10:38 | 30.54869 | 114.13616 | 31879 ft | 436 kts | 275° |
| 2026-05-06 10:39 | 30.55533 | 114.06629 | 31881 ft | 436 kts | 275° |
| 2026-05-06 10:39 | 30.56207 | 113.99636 | 31884 ft | 436 kts | 275° |
| 2026-05-06 10:40 | 30.56862 | 113.92647 | 31881 ft | 436 kts | 275° |
| 2026-05-06 10:40 | 30.57079 | 113.85645 | 31883 ft | 435 kts | 263° |
| 2026-05-06 10:41 | 30.55282 | 113.78974 | 31880 ft | 437 kts | 244° |
| 2026-05-06 10:41 | 30.52027 | 113.73000 | 31880 ft | 438 kts | 239° |
| 2026-05-06 10:42 | 30.48728 | 113.67058 | 31882 ft | 438 kts | 240° |
| 2026-05-06 10:42 | 30.45441 | 113.61118 | 31886 ft | 437 kts | 240° |
| 2026-05-06 10:43 | 30.42149 | 113.55189 | 31887 ft | 437 kts | 240° |
| 2026-05-06 10:44 | 30.37204 | 113.46337 | 31891 ft | 436 kts | 240° |
| 2026-05-06 10:44 | 30.33915 | 113.40451 | 31894 ft | 435 kts | 240° |
| 2026-05-06 10:45 | 30.30628 | 113.34578 | 31896 ft | 434 kts | 240° |
| 2026-05-06 10:45 | 30.27343 | 113.28717 | 31892 ft | 434 kts | 240° |
| 2026-05-06 10:46 | 30.24059 | 113.22860 | 31895 ft | 433 kts | 240° |
| 2026-05-06 10:46 | 30.20778 | 113.17022 | 31893 ft | 433 kts | 240° |
| 2026-05-06 10:47 | 30.17542 | 113.11164 | 31896 ft | 432 kts | 241° |
| 2026-05-06 10:47 | 30.14337 | 113.05304 | 31893 ft | 431 kts | 241° |
| 2026-05-06 10:48 | 30.11120 | 112.99455 | 31889 ft | 431 kts | 241° |
| 2026-05-06 10:48 | 30.07895 | 112.93618 | 31897 ft | 431 kts | 241° |
| 2026-05-06 10:49 | 30.04670 | 112.87791 | 31894 ft | 430 kts | 241° |
| 2026-05-06 10:49 | 30.01445 | 112.81975 | 31895 ft | 430 kts | 241° |
| 2026-05-06 10:50 | 29.98218 | 112.76169 | 31891 ft | 430 kts | 241° |
| 2026-05-06 10:50 | 29.94996 | 112.70365 | 31889 ft | 429 kts | 241° |
| 2026-05-06 10:51 | 29.91776 | 112.64573 | 31885 ft | 429 kts | 241° |
| 2026-05-06 10:51 | 29.88557 | 112.58787 | 31880 ft | 428 kts | 241° |
| 2026-05-06 10:52 | 29.85334 | 112.53012 | 31875 ft | 428 kts | 241° |
| 2026-05-06 10:52 | 29.82131 | 112.47282 | 31876 ft | 428 kts | 241° |
| 2026-05-06 10:53 | 29.78880 | 112.41480 | 31876 ft | 428 kts | 241° |
| 2026-05-06 10:53 | 29.75651 | 112.35721 | 31881 ft | 428 kts | 241° |
| 2026-05-06 10:54 | 29.72422 | 112.29964 | 31883 ft | 428 kts | 240° |
| 2026-05-06 10:54 | 29.69182 | 112.24231 | 31881 ft | 427 kts | 240° |
| 2026-05-06 10:55 | 29.65933 | 112.18512 | 31882 ft | 427 kts | 240° |
| 2026-05-06 10:55 | 29.62693 | 112.12801 | 31883 ft | 426 kts | 240° |
| 2026-05-06 10:56 | 29.59451 | 112.07096 | 31881 ft | 426 kts | 240° |
| 2026-05-06 10:56 | 29.56214 | 112.01398 | 31869 ft | 426 kts | 240° |
| 2026-05-06 10:57 | 29.53002 | 111.95739 | 31863 ft | 425 kts | 240° |
| 2026-05-06 10:57 | 29.49745 | 111.90017 | 31861 ft | 425 kts | 240° |
| 2026-05-06 10:58 | 29.46525 | 111.84369 | 31854 ft | 426 kts | 240° |
| 2026-05-06 10:58 | 29.43282 | 111.78690 | 31847 ft | 425 kts | 240° |
| 2026-05-06 10:59 | 29.40033 | 111.73008 | 31846 ft | 426 kts | 240° |
| 2026-05-06 10:59 | 29.36772 | 111.67339 | 31848 ft | 426 kts | 240° |
| 2026-05-06 11:00 | 29.34114 | 111.61337 | 31849 ft | 421 kts | 251° |
| 2026-05-06 11:00 | 29.31956 | 111.55087 | 31854 ft | 422 kts | 251° |
| 2026-05-06 11:01 | 29.29788 | 111.48842 | 31857 ft | 421 kts | 251° |
| 2026-05-06 11:01 | 29.27612 | 111.42605 | 31857 ft | 422 kts | 251° |
| 2026-05-06 11:02 | 29.25439 | 111.36368 | 31857 ft | 422 kts | 251° |
| 2026-05-06 11:02 | 29.23263 | 111.30138 | 31863 ft | 421 kts | 251° |
| 2026-05-06 11:03 | 29.21084 | 111.23917 | 31867 ft | 421 kts | 250° |
| 2026-05-06 11:03 | 29.18900 | 111.17706 | 31870 ft | 420 kts | 250° |
| 2026-05-06 11:04 | 29.16719 | 111.11511 | 31879 ft | 419 kts | 250° |
| 2026-05-06 11:04 | 29.14543 | 111.05324 | 31888 ft | 419 kts | 251° |
| 2026-05-06 11:05 | 29.12374 | 110.99141 | 31887 ft | 419 kts | 250° |
| 2026-05-06 11:05 | 29.10197 | 110.92958 | 31890 ft | 419 kts | 250° |
| 2026-05-06 11:06 | 29.08015 | 110.86787 | 31901 ft | 418 kts | 250° |
| 2026-05-06 11:06 | 29.05830 | 110.80625 | 31908 ft | 418 kts | 250° |
| 2026-05-06 11:07 | 29.03643 | 110.74468 | 31904 ft | 418 kts | 250° |
| 2026-05-06 11:07 | 29.01462 | 110.68309 | 31909 ft | 418 kts | 250° |
| 2026-05-06 11:08 | 28.99310 | 110.62153 | 31908 ft | 417 kts | 250° |
| 2026-05-06 11:08 | 28.97161 | 110.55991 | 31908 ft | 418 kts | 250° |
| 2026-05-06 11:09 | 28.95001 | 110.49827 | 31901 ft | 418 kts | 250° |
| 2026-05-06 11:09 | 28.92838 | 110.43661 | 31903 ft | 418 kts | 250° |
| 2026-05-06 11:10 | 28.90668 | 110.37493 | 31897 ft | 418 kts | 250° |
| 2026-05-06 11:10 | 28.88496 | 110.31343 | 31897 ft | 418 kts | 250° |
| 2026-05-06 11:11 | 28.86324 | 110.25217 | 31900 ft | 420 kts | 250° |
| 2026-05-06 11:11 | 28.84134 | 110.19043 | 31891 ft | 420 kts | 250° |
| 2026-05-06 11:12 | 28.81938 | 110.12864 | 31893 ft | 421 kts | 250° |
| 2026-05-06 11:12 | 28.79742 | 110.06684 | 31892 ft | 420 kts | 250° |
| 2026-05-06 11:13 | 28.77543 | 110.00501 | 31895 ft | 421 kts | 250° |
| 2026-05-06 11:13 | 28.75339 | 109.94313 | 31896 ft | 421 kts | 250° |
| 2026-05-06 11:14 | 28.73505 | 109.89168 | 31892 ft | 421 kts | 250° |
| 2026-05-06 11:14 | 28.71296 | 109.82985 | 31893 ft | 422 kts | 250° |
| 2026-05-06 11:15 | 28.69074 | 109.76804 | 31890 ft | 422 kts | 249° |
| 2026-05-06 11:15 | 28.66843 | 109.70614 | 31890 ft | 422 kts | 250° |
| 2026-05-06 11:16 | 28.64619 | 109.64428 | 31897 ft | 422 kts | 250° |
| 2026-05-06 11:16 | 28.62482 | 109.58208 | 31899 ft | 422 kts | 251° |
| 2026-05-06 11:17 | 28.60380 | 109.51963 | 31901 ft | 422 kts | 250° |
| 2026-05-06 11:17 | 28.58258 | 109.45740 | 31901 ft | 422 kts | 250° |
| 2026-05-06 11:18 | 28.55696 | 109.39725 | 31897 ft | 423 kts | 245° |
| 2026-05-06 11:18 | 28.53063 | 109.33748 | 31896 ft | 423 kts | 246° |
| 2026-05-06 11:19 | 28.50428 | 109.27764 | 31896 ft | 423 kts | 245° |
| 2026-05-06 11:19 | 28.47798 | 109.21789 | 31891 ft | 423 kts | 245° |
| 2026-05-06 11:20 | 28.45167 | 109.15815 | 31889 ft | 423 kts | 245° |
| 2026-05-06 11:20 | 28.42523 | 109.09847 | 31883 ft | 423 kts | 245° |
| 2026-05-06 11:21 | 28.39857 | 109.03895 | 31887 ft | 423 kts | 245° |
| 2026-05-06 11:21 | 28.37191 | 108.97942 | 31884 ft | 423 kts | 245° |
| 2026-05-06 11:22 | 28.34524 | 108.91996 | 31887 ft | 422 kts | 245° |
| 2026-05-06 11:22 | 28.31859 | 108.86047 | 31892 ft | 423 kts | 245° |
| 2026-05-06 11:23 | 28.29189 | 108.80096 | 31889 ft | 423 kts | 245° |
| 2026-05-06 11:23 | 28.26525 | 108.74139 | 31886 ft | 423 kts | 245° |
| 2026-05-06 11:24 | 28.23868 | 108.68174 | 31884 ft | 424 kts | 245° |
| 2026-05-06 11:24 | 28.21205 | 108.62216 | 31882 ft | 424 kts | 245° |
| 2026-05-06 11:25 | 28.18529 | 108.56246 | 31891 ft | 425 kts | 245° |
| 2026-05-06 11:25 | 28.15858 | 108.50278 | 31896 ft | 425 kts | 245° |
| 2026-05-06 11:26 | 28.13179 | 108.44310 | 31898 ft | 425 kts | 245° |
| 2026-05-06 11:26 | 28.10494 | 108.38344 | 31911 ft | 425 kts | 245° |
| 2026-05-06 11:27 | 28.07804 | 108.32376 | 31922 ft | 426 kts | 245° |
| 2026-05-06 11:27 | 28.05108 | 108.26399 | 31909 ft | 426 kts | 245° |
| 2026-05-06 11:28 | 28.02405 | 108.20411 | 31917 ft | 428 kts | 245° |
| 2026-05-06 11:28 | 27.99693 | 108.14423 | 31910 ft | 427 kts | 245° |
| 2026-05-06 11:29 | 27.96970 | 108.08430 | 31905 ft | 428 kts | 245° |
| 2026-05-06 11:29 | 27.94246 | 108.02428 | 31894 ft | 429 kts | 245° |
| 2026-05-06 11:30 | 27.91520 | 107.96409 | 31908 ft | 431 kts | 245° |
| 2026-05-06 11:30 | 27.88777 | 107.90374 | 31912 ft | 432 kts | 245° |
| 2026-05-06 11:31 | 27.86022 | 107.84346 | 31920 ft | 432 kts | 245° |
| 2026-05-06 11:31 | 27.83260 | 107.78314 | 31928 ft | 432 kts | 245° |
| 2026-05-06 11:32 | 27.80545 | 107.72311 | 31935 ft | 432 kts | 245° |
| 2026-05-06 11:32 | 27.77842 | 107.66212 | 31950 ft | 431 kts | 245° |
| 2026-05-06 11:33 | 27.75157 | 107.60152 | 31951 ft | 431 kts | 245° |
| 2026-05-06 11:33 | 27.72459 | 107.54109 | 31954 ft | 432 kts | 245° |
| 2026-05-06 11:34 | 27.69745 | 107.48066 | 31953 ft | 431 kts | 245° |
| 2026-05-06 11:34 | 27.67033 | 107.42036 | 31951 ft | 431 kts | 245° |
| 2026-05-06 11:35 | 27.64323 | 107.36008 | 31952 ft | 431 kts | 245° |
| 2026-05-06 11:35 | 27.61615 | 107.29978 | 31947 ft | 431 kts | 245° |
| 2026-05-06 11:36 | 27.58903 | 107.23958 | 31951 ft | 431 kts | 245° |
| 2026-05-06 11:36 | 27.56185 | 107.17938 | 31947 ft | 431 kts | 245° |
| 2026-05-06 11:37 | 27.53471 | 107.11916 | 31945 ft | 431 kts | 245° |
| 2026-05-06 11:37 | 27.50751 | 107.05900 | 31948 ft | 431 kts | 245° |
| 2026-05-06 11:38 | 27.48023 | 106.99880 | 31951 ft | 432 kts | 245° |
| 2026-05-06 11:38 | 27.45321 | 106.93890 | 31949 ft | 432 kts | 245° |
| 2026-05-06 11:39 | 27.42634 | 106.87848 | 31952 ft | 432 kts | 245° |
| 2026-05-06 11:39 | 27.39948 | 106.81808 | 31955 ft | 432 kts | 245° |
| 2026-05-06 11:40 | 27.37242 | 106.75770 | 31954 ft | 432 kts | 245° |
| 2026-05-06 11:40 | 27.34523 | 106.69738 | 31963 ft | 433 kts | 245° |
| 2026-05-06 11:41 | 27.31794 | 106.63706 | 31961 ft | 433 kts | 245° |
| 2026-05-06 11:41 | 27.29058 | 106.57668 | 31961 ft | 433 kts | 245° |
| 2026-05-06 11:42 | 27.26319 | 106.51630 | 31959 ft | 433 kts | 245° |
| 2026-05-06 11:42 | 27.23584 | 106.45592 | 31963 ft | 434 kts | 245° |
| 2026-05-06 11:43 | 27.20835 | 106.39553 | 31966 ft | 435 kts | 245° |
| 2026-05-06 11:43 | 27.18081 | 106.33501 | 31976 ft | 435 kts | 245° |
| 2026-05-06 11:44 | 27.13943 | 106.24412 | 31984 ft | 435 kts | 245° |
| 2026-05-06 11:44 | 27.11191 | 106.18362 | 31988 ft | 435 kts | 245° |
| 2026-05-06 11:45 | 27.08431 | 106.12314 | 31982 ft | 435 kts | 245° |
| 2026-05-06 11:45 | 27.05664 | 106.06270 | 31981 ft | 436 kts | 245° |
| 2026-05-06 11:46 | 27.02946 | 106.00184 | 31981 ft | 435 kts | 248° |
| 2026-05-06 11:46 | 27.00504 | 105.93978 | 31986 ft | 435 kts | 249° |
| 2026-05-06 11:47 | 26.98139 | 105.87733 | 31990 ft | 435 kts | 249° |
| 2026-05-06 11:47 | 26.95717 | 105.81517 | 31998 ft | 435 kts | 249° |
| 2026-05-06 11:48 | 26.93251 | 105.75323 | 31991 ft | 435 kts | 248° |
| 2026-05-06 11:48 | 26.90792 | 105.69137 | 31981 ft | 435 kts | 249° |
| 2026-05-06 11:49 | 26.88338 | 105.62938 | 31980 ft | 435 kts | 249° |
| 2026-05-06 11:49 | 26.85884 | 105.56749 | 31981 ft | 435 kts | 249° |
| 2026-05-06 11:50 | 26.83420 | 105.50567 | 31980 ft | 435 kts | 248° |
| 2026-05-06 11:50 | 26.80947 | 105.44390 | 31975 ft | 435 kts | 248° |
| 2026-05-06 11:51 | 26.78475 | 105.38211 | 31973 ft | 435 kts | 248° |
| 2026-05-06 11:51 | 26.76003 | 105.32036 | 31970 ft | 434 kts | 249° |
| 2026-05-06 11:52 | 26.73535 | 105.25864 | 31972 ft | 435 kts | 249° |
| 2026-05-06 11:52 | 26.71062 | 105.19684 | 31967 ft | 435 kts | 248° |
| 2026-05-06 11:53 | 26.68574 | 105.13518 | 31971 ft | 435 kts | 248° |
| 2026-05-06 11:53 | 26.66083 | 105.07349 | 31971 ft | 436 kts | 248° |
| 2026-05-06 11:54 | 26.63361 | 105.01298 | 31979 ft | 438 kts | 240° |
| 2026-05-06 11:54 | 26.60049 | 104.95574 | 31982 ft | 439 kts | 240° |
| 2026-05-06 11:55 | 26.57290 | 104.90829 | 31984 ft | 438 kts | 240° |
| 2026-05-06 11:55 | 26.53976 | 104.85119 | 31989 ft | 438 kts | 240° |
| 2026-05-06 11:56 | 26.50668 | 104.79414 | 31989 ft | 438 kts | 240° |
| 2026-05-06 11:56 | 26.47363 | 104.73737 | 31984 ft | 438 kts | 240° |
| 2026-05-06 11:57 | 26.44008 | 104.68031 | 31995 ft | 437 kts | 240° |
| 2026-05-06 11:57 | 26.40655 | 104.62372 | 31989 ft | 437 kts | 240° |
| 2026-05-06 11:58 | 26.37298 | 104.56712 | 31989 ft | 437 kts | 239° |
| 2026-05-06 11:58 | 26.33940 | 104.51046 | 31994 ft | 437 kts | 239° |
| 2026-05-06 11:59 | 26.30589 | 104.45399 | 31992 ft | 437 kts | 239° |
| 2026-05-06 11:59 | 26.27242 | 104.39752 | 31990 ft | 437 kts | 239° |
| 2026-05-06 12:00 | 26.23896 | 104.34109 | 31996 ft | 437 kts | 239° |
| 2026-05-06 12:00 | 26.20541 | 104.28480 | 32005 ft | 436 kts | 239° |
| 2026-05-06 12:01 | 26.17184 | 104.22855 | 32013 ft | 436 kts | 239° |
| 2026-05-06 12:01 | 26.13831 | 104.17241 | 32014 ft | 435 kts | 239° |
| 2026-05-06 12:02 | 26.10481 | 104.11638 | 32021 ft | 434 kts | 239° |
| 2026-05-06 12:02 | 26.07140 | 104.06044 | 32026 ft | 434 kts | 239° |
| 2026-05-06 12:03 | 26.03818 | 104.00497 | 32026 ft | 434 kts | 239° |
| 2026-05-06 12:03 | 26.00453 | 103.94884 | 32038 ft | 433 kts | 239° |
| 2026-05-06 12:04 | 25.97104 | 103.89319 | 32045 ft | 433 kts | 239° |
| 2026-05-06 12:04 | 25.93819 | 103.83769 | 32058 ft | 432 kts | 240° |
| 2026-05-06 12:05 | 25.90548 | 103.78166 | 32054 ft | 432 kts | 240° |
| 2026-05-06 12:05 | 25.87267 | 103.72568 | 32070 ft | 432 kts | 240° |
| 2026-05-06 12:06 | 25.83976 | 103.66984 | 32076 ft | 432 kts | 239° |
| 2026-05-06 12:06 | 25.80683 | 103.61409 | 32083 ft | 432 kts | 240° |
| 2026-05-06 12:07 | 25.77386 | 103.55831 | 32088 ft | 432 kts | 240° |
| 2026-05-06 12:07 | 25.74091 | 103.50264 | 32098 ft | 432 kts | 240° |
| 2026-05-06 12:08 | 25.70790 | 103.44699 | 32110 ft | 432 kts | 240° |
| 2026-05-06 12:08 | 25.67483 | 103.39126 | 32120 ft | 432 kts | 240° |
| 2026-05-06 12:09 | 25.64180 | 103.33560 | 32121 ft | 432 kts | 239° |
| 2026-05-06 12:09 | 25.60878 | 103.27998 | 32136 ft | 432 kts | 239° |
| 2026-05-06 12:10 | 25.57562 | 103.22433 | 32141 ft | 433 kts | 239° |
| 2026-05-06 12:10 | 25.54238 | 103.16878 | 32141 ft | 433 kts | 239° |
| 2026-05-06 12:11 | 25.50916 | 103.11314 | 32150 ft | 433 kts | 239° |
| 2026-05-06 12:11 | 25.47592 | 103.05741 | 32152 ft | 434 kts | 239° |
| 2026-05-06 12:12 | 25.44282 | 103.00210 | 32162 ft | 434 kts | 239° |
| 2026-05-06 12:12 | 25.40945 | 102.94639 | 32174 ft | 434 kts | 239° |
| 2026-05-06 12:13 | 25.37143 | 102.89412 | 32176 ft | 437 kts | 233° |
| 2026-05-06 12:13 | 25.33165 | 102.84265 | 32181 ft | 437 kts | 233° |
| 2026-05-06 12:14 | 25.29215 | 102.79155 | 32182 ft | 437 kts | 233° |
| 2026-05-06 12:14 | 25.25292 | 102.74076 | 32181 ft | 438 kts | 233° |
| 2026-05-06 12:15 | 25.21325 | 102.68965 | 32179 ft | 438 kts | 232° |
| 2026-05-06 12:15 | 25.17366 | 102.63862 | 32171 ft | 438 kts | 232° |
| 2026-05-06 12:16 | 25.13405 | 102.58748 | 32166 ft | 438 kts | 232° |
| 2026-05-06 12:16 | 25.09420 | 102.53654 | 32157 ft | 439 kts | 229° |
| 2026-05-06 12:17 | 25.04532 | 102.49537 | 32151 ft | 447 kts | 215° |
| 2026-05-06 12:17 | 24.99927 | 102.46453 | 32153 ft | 447 kts | 215° |
| 2026-05-06 12:18 | 24.96508 | 102.44189 | 32075 ft | 447 kts | 215° |
| 2026-05-06 12:18 | 24.91185 | 102.40602 | 32159 ft | 450 kts | 216° |
| 2026-05-06 12:19 | 24.85858 | 102.37001 | 32164 ft | 449 kts | 215° |
| 2026-05-06 12:19 | 24.80520 | 102.33410 | 32161 ft | 449 kts | 215° |
| 2026-05-06 12:20 | 24.75191 | 102.29832 | 32153 ft | 449 kts | 215° |
| 2026-05-06 12:20 | 24.69856 | 102.26262 | 32138 ft | 449 kts | 215° |
| 2026-05-06 12:21 | 24.64510 | 102.22691 | 32127 ft | 450 kts | 215° |
| 2026-05-06 12:21 | 24.59155 | 102.19115 | 32111 ft | 450 kts | 215° |
| 2026-05-06 12:22 | 24.53797 | 102.15539 | 32103 ft | 451 kts | 214° |
| 2026-05-06 12:22 | 24.48437 | 102.11962 | 32099 ft | 452 kts | 214° |
| 2026-05-06 12:23 | 24.43061 | 102.08379 | 32093 ft | 452 kts | 214° |
| 2026-05-06 12:23 | 24.37679 | 102.04793 | 32087 ft | 453 kts | 214° |
| 2026-05-06 12:24 | 24.32289 | 102.01207 | 32077 ft | 453 kts | 214° |
| 2026-05-06 12:24 | 24.26892 | 101.97625 | 32067 ft | 454 kts | 214° |
| 2026-05-06 12:25 | 24.21486 | 101.94041 | 32059 ft | 455 kts | 214° |
| 2026-05-06 12:25 | 24.16103 | 101.90480 | 32057 ft | 455 kts | 214° |
| 2026-05-06 12:26 | 24.10690 | 101.86885 | 32052 ft | 455 kts | 214° |
| 2026-05-06 12:26 | 24.05271 | 101.83296 | 32049 ft | 455 kts | 214° |
| 2026-05-06 12:27 | 23.99846 | 101.79711 | 32049 ft | 456 kts | 214° |
| 2026-05-06 12:27 | 23.94414 | 101.76134 | 32046 ft | 456 kts | 214° |
| 2026-05-06 12:28 | 23.88969 | 101.72564 | 32043 ft | 456 kts | 214° |
| 2026-05-06 12:28 | 23.83533 | 101.69000 | 32036 ft | 456 kts | 214° |
| 2026-05-06 12:29 | 23.78088 | 101.65430 | 32036 ft | 456 kts | 214° |
| 2026-05-06 12:29 | 23.72647 | 101.61863 | 32028 ft | 456 kts | 214° |
| 2026-05-06 12:30 | 23.67204 | 101.58301 | 32027 ft | 457 kts | 214° |
| 2026-05-06 12:30 | 23.61745 | 101.54739 | 32028 ft | 457 kts | 214° |
| 2026-05-06 12:31 | 23.56286 | 101.51181 | 32026 ft | 457 kts | 214° |
| 2026-05-06 12:31 | 23.50827 | 101.47611 | 31474 ft | 457 kts | 214° |
| 2026-05-06 12:32 | 23.48094 | 101.45829 | 31009 ft | 458 kts | 214° |
| 2026-05-06 12:32 | 23.45356 | 101.44050 | 30545 ft | 459 kts | 214° |
| 2026-05-06 12:32 | 23.42614 | 101.42271 | 30075 ft | 460 kts | 214° |
| 2026-05-06 12:32 | 23.39860 | 101.40482 | 29576 ft | 461 kts | 214° |
| 2026-05-06 12:33 | 23.37103 | 101.38692 | 29037 ft | 462 kts | 214° |
| 2026-05-06 12:33 | 23.34339 | 101.36899 | 28518 ft | 463 kts | 214° |
| 2026-05-06 12:33 | 23.31570 | 101.35100 | 28016 ft | 464 kts | 214° |
| 2026-05-06 12:33 | 23.28793 | 101.33295 | 27512 ft | 465 kts | 214° |
| 2026-05-06 12:34 | 23.26013 | 101.31488 | 27021 ft | 467 kts | 214° |
| 2026-05-06 12:34 | 23.23220 | 101.29676 | 26536 ft | 468 kts | 214° |
| 2026-05-06 12:34 | 23.20419 | 101.27859 | 26064 ft | 470 kts | 214° |
| 2026-05-06 12:34 | 23.17609 | 101.26036 | 25597 ft | 471 kts | 214° |
| 2026-05-06 12:35 | 23.14788 | 101.24208 | 25135 ft | 473 kts | 214° |
| 2026-05-06 12:35 | 23.11959 | 101.22375 | 24682 ft | 474 kts | 214° |
| 2026-05-06 12:35 | 23.09117 | 101.20538 | 24231 ft | 476 kts | 214° |
| 2026-05-06 12:35 | 23.06278 | 101.18705 | 23796 ft | 474 kts | 214° |
| 2026-05-06 12:36 | 23.03450 | 101.16880 | 23340 ft | 472 kts | 214° |
| 2026-05-06 12:36 | 23.00634 | 101.15063 | 22822 ft | 469 kts | 214° |
| 2026-05-06 12:36 | 22.97839 | 101.13260 | 22319 ft | 467 kts | 214° |
| 2026-05-06 12:36 | 22.95057 | 101.11465 | 21822 ft | 464 kts | 214° |
| 2026-05-06 12:37 | 22.92290 | 101.09679 | 21330 ft | 461 kts | 214° |
| 2026-05-06 12:37 | 22.89548 | 101.07907 | 20847 ft | 458 kts | 214° |
| 2026-05-06 12:37 | 22.87737 | 101.06738 | 20533 ft | 456 kts | 214° |
| 2026-05-06 12:37 | 22.84100 | 101.04394 | 19902 ft | 453 kts | 214° |
| 2026-05-06 12:38 | 22.81388 | 101.02650 | 19441 ft | 451 kts | 214° |
| 2026-05-06 12:38 | 22.79604 | 101.01503 | 19147 ft | 449 kts | 214° |
| 2026-05-06 12:38 | 22.76920 | 100.99779 | 18697 ft | 447 kts | 214° |
| 2026-05-06 12:38 | 22.74220 | 100.98124 | 18253 ft | 447 kts | 209° |
| 2026-05-06 12:39 | 22.71332 | 100.96868 | 17769 ft | 448 kts | 201° |
| 2026-05-06 12:39 | 22.68297 | 100.96100 | 17253 ft | 449 kts | 192° |
| 2026-05-06 12:39 | 22.65194 | 100.95716 | 16754 ft | 447 kts | 189° |
| 2026-05-06 12:39 | 22.62118 | 100.95362 | 16266 ft | 443 kts | 189° |
| 2026-05-06 12:40 | 22.59059 | 100.95009 | 15783 ft | 440 kts | 189° |
| 2026-05-06 12:40 | 22.56031 | 100.94656 | 15315 ft | 436 kts | 189° |
| 2026-05-06 12:40 | 22.53026 | 100.94301 | 14842 ft | 433 kts | 189° |
| 2026-05-06 12:40 | 22.50039 | 100.93947 | 14384 ft | 430 kts | 189° |
| 2026-05-06 12:41 | 22.47079 | 100.93597 | 13933 ft | 427 kts | 189° |
| 2026-05-06 12:41 | 22.44143 | 100.93253 | 13464 ft | 423 kts | 189° |
| 2026-05-06 12:41 | 22.41233 | 100.92914 | 12948 ft | 416 kts | 189° |
| 2026-05-06 12:41 | 22.38386 | 100.92583 | 12457 ft | 407 kts | 189° |
| 2026-05-06 12:42 | 22.35602 | 100.92256 | 11962 ft | 399 kts | 189° |
| 2026-05-06 12:42 | 22.32871 | 100.91935 | 11580 ft | 387 kts | 189° |
| 2026-05-06 12:42 | 22.30257 | 100.91632 | 11459 ft | 369 kts | 189° |
| 2026-05-06 12:42 | 22.27757 | 100.91343 | 11333 ft | 354 kts | 189° |
| 2026-05-06 12:43 | 22.25360 | 100.91063 | 11215 ft | 340 kts | 189° |
| 2026-05-06 12:43 | 22.23050 | 100.90790 | 11093 ft | 328 kts | 189° |
| 2026-05-06 12:43 | 22.20822 | 100.90525 | 10977 ft | 316 kts | 189° |
| 2026-05-06 12:43 | 22.18675 | 100.90271 | 10845 ft | 305 kts | 189° |
| 2026-05-06 12:44 | 22.16585 | 100.90024 | 10602 ft | 300 kts | 189° |
| 2026-05-06 12:44 | 22.14519 | 100.89782 | 10284 ft | 298 kts | 189° |
| 2026-05-06 12:44 | 22.12469 | 100.89541 | 9930 ft | 296 kts | 190° |
| 2026-05-06 12:44 | 22.10423 | 100.89301 | 9594 ft | 295 kts | 189° |
| 2026-05-06 12:45 | 22.08389 | 100.89063 | 9234 ft | 293 kts | 189° |
| 2026-05-06 12:45 | 22.06366 | 100.88842 | 8853 ft | 292 kts | 186° |
| 2026-05-06 12:45 | 22.02326 | 100.89278 | 8025 ft | 293 kts | 171° |
| 2026-05-06 12:46 | 22.00342 | 100.89730 | 7665 ft | 291 kts | 171° |
| 2026-05-06 12:46 | 21.98367 | 100.90173 | 7310 ft | 289 kts | 171° |
| 2026-05-06 12:46 | 21.96408 | 100.90609 | 6973 ft | 286 kts | 171° |
| 2026-05-06 12:46 | 21.94466 | 100.91040 | 6893 ft | 285 kts | 171° |
| 2026-05-06 12:47 | 21.92518 | 100.91472 | 6898 ft | 286 kts | 171° |
| 2026-05-06 12:47 | 21.90566 | 100.91903 | 6901 ft | 286 kts | 171° |
| 2026-05-06 12:47 | 21.88616 | 100.92332 | 6903 ft | 286 kts | 171° |
| 2026-05-06 12:47 | 21.86667 | 100.92763 | 6899 ft | 287 kts | 170° |
| 2026-05-06 12:48 | 21.84713 | 100.93196 | 6905 ft | 283 kts | 171° |
| 2026-05-06 12:48 | 21.82833 | 100.93324 | 6849 ft | 263 kts | 192° |
| 2026-05-06 12:48 | 21.81196 | 100.92630 | 6734 ft | 247 kts | 217° |
| 2026-05-06 12:48 | 21.80054 | 100.91340 | 6621 ft | 233 kts | 240° |
| 2026-05-06 12:49 | 21.79448 | 100.89775 | 6493 ft | 222 kts | 251° |
| 2026-05-06 12:49 | 21.78953 | 100.88237 | 6386 ft | 213 kts | 251° |
| 2026-05-06 12:49 | 21.78474 | 100.86764 | 6304 ft | 202 kts | 251° |
| 2026-05-06 12:49 | 21.78084 | 100.85353 | 6069 ft | 194 kts | 265° |
| 2026-05-06 12:50 | 21.78359 | 100.83963 | 5600 ft | 195 kts | 301° |
| 2026-05-06 12:50 | 21.79392 | 100.83020 | 5216 ft | 200 kts | 335° |
| 2026-05-06 12:50 | 21.80714 | 100.82515 | 4935 ft | 202 kts | 339° |
| 2026-05-06 12:50 | 21.82036 | 100.82027 | 4669 ft | 199 kts | 339° |
| 2026-05-06 12:51 | 21.83324 | 100.81547 | 4415 ft | 193 kts | 339° |
| 2026-05-06 12:51 | 21.84550 | 100.81087 | 4196 ft | 178 kts | 339° |
| 2026-05-06 12:51 | 21.85666 | 100.80669 | 3990 ft | 163 kts | 340° |
| 2026-05-06 12:51 | 21.86705 | 100.80278 | 3804 ft | 155 kts | 340° |
| 2026-05-06 12:52 | 21.87709 | 100.79901 | 3626 ft | 151 kts | 340° |
| 2026-05-06 12:52 | 21.88695 | 100.79531 | 3441 ft | 149 kts | 341° |
| 2026-05-06 12:52 | 21.89671 | 100.79164 | 3241 ft | 148 kts | 341° |
| 2026-05-06 12:52 | 21.90641 | 100.78800 | 3034 ft | 147 kts | 341° |
| 2026-05-06 12:53 | 21.91609 | 100.78436 | 2830 ft | 147 kts | 341° |
| 2026-05-06 12:53 | 21.92574 | 100.78072 | 2631 ft | 147 kts | 340° |
| 2026-05-06 12:53 | 21.93539 | 100.77711 | 2456 ft | 147 kts | 340° |
| 2026-05-06 12:53 | 21.94499 | 100.77350 | 2217 ft | 145 kts | 340° |
| 2026-05-06 12:54 | 21.95450 | 100.76993 | 2054 ft | 145 kts | 340° |
| 2026-05-06 12:54 | 21.96398 | 100.76632 | 1870 ft | 144 kts | 340° |
| 2026-05-06 12:54 | 21.97292 | 100.76278 | 1817 ft | 122 kts | 341° |
| 2026-05-06 12:54 | 21.97888 | 100.76069 | 1819 ft | 40 kts | 341° |
| 2026-05-06 12:55 | 21.97987 | 100.76121 | 1821 ft | 8 kts | 100° |
| 2026-05-06 12:55 | 21.97959 | 100.76160 | 1816 ft | 11 kts | 128° |
| 2026-05-06 12:55 | 21.97890 | 100.76251 | 1813 ft | 14 kts | 154° |
| 2026-05-06 12:55 | 21.97817 | 100.76280 | 1816 ft | 10 kts | 160° |
| 2026-05-06 12:56 | 21.97804 | 100.76285 | 1817 ft | 0 kts | 160° |